Terminal Aerodrome Forecast
Issued by NWS

Home | Current Version | Previous Version | Text Only | Print | Product List | Glossary On
Versions: 1 2 3 4 5 6 7 8 9 10 11 12 13 14 15 16 17 18 19 20 21 22
000
FTUS44 KLZK 070500
TAFLLQ
TAF
KLLQ 070539Z 0706/0806 19005KT P6SM OVC250
     FM071000 22007KT P6SM BKN015 OVC250
     FM071400 23008G15KT P6SM VCSH SCT030 BKN060 OVC250
     FM071800 23009G18KT P6SM VCTS SCT030CB OVC080=

USA.gov is the U.S. government's official web portal to all federal, state and local government web resources and services.